sensor_id;sensor_type;location;lat;lon;timestamp;noise_LAeq;noise_LA_min;noise_LA_max;noise_LA01;noise_LA95
38366;Laerm;943;51.568;6.998;2023-05-10T00:02:09;52.40;44.00;80.52;;
38366;Laerm;943;51.568;6.998;2023-05-10T00:04:37;46.84;43.31;63.82;;
38366;Laerm;943;51.568;6.998;2023-05-10T00:07:05;47.50;42.13;65.77;;
38366;Laerm;943;51.568;6.998;2023-05-10T00:09:33;46.01;42.85;60.67;;
38366;Laerm;943;51.568;6.998;2023-05-10T00:12:01;44.48;41.23;61.95;;
38366;Laerm;943;51.568;6.998;2023-05-10T00:14:28;46.16;41.60;68.00;;
38366;Laerm;943;51.568;6.998;2023-05-10T00:16:57;43.13;40.18;56.72;;
38366;Laerm;943;51.568;6.998;2023-05-10T00:19:25;44.84;40.94;58.32;;
38366;Laerm;943;51.568;6.998;2023-05-10T00:21:53;43.28;41.02;50.33;;
38366;Laerm;943;51.568;6.998;2023-05-10T00:24:21;44.06;40.68;53.59;;
38366;Laerm;943;51.568;6.998;2023-05-10T00:26:49;43.45;41.38;54.21;;
38366;Laerm;943;51.568;6.998;2023-05-10T00:29:17;44.44;41.71;59.43;;
38366;Laerm;943;51.568;6.998;2023-05-10T00:31:45;43.96;40.57;64.12;;
38366;Laerm;943;51.568;6.998;2023-05-10T00:34:13;43.44;40.67;57.68;;
38366;Laerm;943;51.568;6.998;2023-05-10T00:36:41;43.77;40.12;56.34;;
38366;Laerm;943;51.568;6.998;2023-05-10T00:39:09;44.91;40.64;61.16;;
38366;Laerm;943;51.568;6.998;2023-05-10T00:41:38;43.67;40.33;58.19;;
38366;Laerm;943;51.568;6.998;2023-05-10T00:44:07;47.02;40.20;71.44;;
38366;Laerm;943;51.568;6.998;2023-05-10T00:46:35;66.05;40.80;87.44;;
38366;Laerm;943;51.568;6.998;2023-05-10T00:49:04;45.41;40.32;66.30;;
38366;Laerm;943;51.568;6.998;2023-05-10T00:51:32;46.98;40.00;68.89;;
38366;Laerm;943;51.568;6.998;2023-05-10T00:54:00;46.22;40.19;67.12;;
38366;Laerm;943;51.568;6.998;2023-05-10T00:56:29;50.75;40.90;75.37;;
38366;Laerm;943;51.568;6.998;2023-05-10T00:58:57;45.02;39.87;68.61;;
38366;Laerm;943;51.568;6.998;2023-05-10T01:01:25;44.63;37.74;65.24;;
38366;Laerm;943;51.568;6.998;2023-05-10T01:03:55;44.05;37.77;65.50;;
38366;Laerm;943;51.568;6.998;2023-05-10T01:06:23;43.73;39.13;60.59;;
38366;Laerm;943;51.568;6.998;2023-05-10T01:08:52;42.49;39.15;52.25;;
38366;Laerm;943;51.568;6.998;2023-05-10T01:11:20;43.25;39.69;56.00;;
38366;Laerm;943;51.568;6.998;2023-05-10T01:13:57;41.73;37.67;56.02;;
38366;Laerm;943;51.568;6.998;2023-05-10T01:16:27;42.76;37.61;59.45;;
38366;Laerm;943;51.568;6.998;2023-05-10T01:18:57;42.52;38.24;58.82;;
38366;Laerm;943;51.568;6.998;2023-05-10T01:39:01;42.35;38.73;53.18;;
38366;Laerm;943;51.568;6.998;2023-05-10T01:42:04;48.70;37.39;73.64;;
38366;Laerm;943;51.568;6.998;2023-05-10T01:45:05;41.34;36.94;54.10;;
38366;Laerm;943;51.568;6.998;2023-05-10T01:47:46;41.46;36.63;50.82;;
38366;Laerm;943;51.568;6.998;2023-05-10T01:50:29;40.38;36.00;51.15;;
38366;Laerm;943;51.568;6.998;2023-05-10T01:53:01;40.06;34.50;48.78;;
38366;Laerm;943;51.568;6.998;2023-05-10T01:55:43;39.57;35.54;46.95;;
38366;Laerm;943;51.568;6.998;2023-05-10T01:58:28;41.23;35.80;49.60;;
38366;Laerm;943;51.568;6.998;2023-05-10T02:01:04;41.88;36.54;47.31;;
38366;Laerm;943;51.568;6.998;2023-05-10T02:03:36;40.17;36.31;46.21;;
38366;Laerm;943;51.568;6.998;2023-05-10T02:06:07;39.33;36.03;47.38;;
38366;Laerm;943;51.568;6.998;2023-05-10T02:08:40;39.39;35.63;46.33;;
38366;Laerm;943;51.568;6.998;2023-05-10T02:11:13;39.17;35.80;47.92;;
38366;Laerm;943;51.568;6.998;2023-05-10T02:13:44;39.95;36.60;46.22;;
38366;Laerm;943;51.568;6.998;2023-05-10T02:16:14;40.38;36.27;47.14;;
38366;Laerm;943;51.568;6.998;2023-05-10T02:18:45;41.67;37.94;51.08;;
38366;Laerm;943;51.568;6.998;2023-05-10T02:21:17;41.33;37.33;49.75;;
38366;Laerm;943;51.568;6.998;2023-05-10T02:23:50;40.80;37.19;49.13;;
38366;Laerm;943;51.568;6.998;2023-05-10T02:26:23;39.64;35.68;50.06;;
38366;Laerm;943;51.568;6.998;2023-05-10T02:28:54;44.65;37.23;60.29;;
38366;Laerm;943;51.568;6.998;2023-05-10T02:31:24;46.54;37.35;59.21;;
38366;Laerm;943;51.568;6.998;2023-05-10T02:33:55;45.90;36.17;62.54;;
38366;Laerm;943;51.568;6.998;2023-05-10T02:36:27;51.20;36.29;68.00;;
38366;Laerm;943;51.568;6.998;2023-05-10T02:38:56;52.28;37.01;69.23;;
38366;Laerm;943;51.568;6.998;2023-05-10T02:41:28;53.88;37.94;73.08;;
38366;Laerm;943;51.568;6.998;2023-05-10T02:44:02;55.48;38.50;71.16;;
38366;Laerm;943;51.568;6.998;2023-05-10T02:46:31;51.58;37.92;70.55;;
38366;Laerm;943;51.568;6.998;2023-05-10T02:48:59;49.25;36.87;65.27;;
38366;Laerm;943;51.568;6.998;2023-05-10T02:51:35;55.30;38.32;73.95;;
38366;Laerm;943;51.568;6.998;2023-05-10T02:54:24;50.03;38.80;65.35;;
38366;Laerm;943;51.568;6.998;2023-05-10T02:57:00;52.34;38.69;71.77;;
38366;Laerm;943;51.568;6.998;2023-05-10T02:59:31;53.85;39.49;72.81;;
38366;Laerm;943;51.568;6.998;2023-05-10T03:02:01;58.21;41.45;75.07;;
38366;Laerm;943;51.568;6.998;2023-05-10T03:04:29;56.18;41.35;69.73;;
38366;Laerm;943;51.568;6.998;2023-05-10T03:06:58;57.07;40.92;73.30;;
38366;Laerm;943;51.568;6.998;2023-05-10T03:09:26;59.89;43.28;73.65;;
38366;Laerm;943;51.568;6.998;2023-05-10T03:12:11;60.08;41.57;75.73;;
38366;Laerm;943;51.568;6.998;2023-05-10T03:21:10;58.45;43.12;72.89;;
38366;Laerm;943;51.568;6.998;2023-05-10T03:24:11;56.94;41.97;72.89;;
38366;Laerm;943;51.568;6.998;2023-05-10T03:26:44;57.47;41.94;69.95;;
38366;Laerm;943;51.568;6.998;2023-05-10T03:29:18;54.68;41.80;67.20;;
38366;Laerm;943;51.568;6.998;2023-05-10T03:31:47;51.71;42.26;65.48;;
38366;Laerm;943;51.568;6.998;2023-05-10T03:34:15;49.16;41.48;63.16;;
38366;Laerm;943;51.568;6.998;2023-05-10T03:36:44;50.80;40.81;67.36;;
38366;Laerm;943;51.568;6.998;2023-05-10T03:39:12;55.70;41.77;72.36;;
38366;Laerm;943;51.568;6.998;2023-05-10T03:41:40;64.51;42.02;79.87;;
38366;Laerm;943;51.568;6.998;2023-05-10T03:44:08;58.15;41.75;72.61;;
38366;Laerm;943;51.568;6.998;2023-05-10T03:46:36;58.51;41.36;73.19;;
38366;Laerm;943;51.568;6.998;2023-05-10T03:49:04;56.60;41.05;72.54;;
38366;Laerm;943;51.568;6.998;2023-05-10T03:51:32;53.97;40.98;72.75;;
38366;Laerm;943;51.568;6.998;2023-05-10T03:54:00;52.02;40.79;67.97;;
38366;Laerm;943;51.568;6.998;2023-05-10T03:56:28;53.41;41.46;65.81;;
38366;Laerm;943;51.568;6.998;2023-05-10T03:58:56;54.39;42.02;66.61;;
38366;Laerm;943;51.568;6.998;2023-05-10T04:01:25;48.46;40.65;61.32;;
38366;Laerm;943;51.568;6.998;2023-05-10T04:03:53;46.06;40.70;55.93;;
38366;Laerm;943;51.568;6.998;2023-05-10T04:06:21;45.64;41.38;61.52;;
38366;Laerm;943;51.568;6.998;2023-05-10T04:08:50;51.46;41.79;67.83;;
38366;Laerm;943;51.568;6.998;2023-05-10T04:11:18;54.43;41.34;71.93;;
38366;Laerm;943;51.568;6.998;2023-05-10T04:13:46;52.23;41.68;73.22;;
38366;Laerm;943;51.568;6.998;2023-05-10T04:16:14;47.67;42.83;62.60;;
38366;Laerm;943;51.568;6.998;2023-05-10T04:18:42;46.28;41.40;58.72;;
38366;Laerm;943;51.568;6.998;2023-05-10T04:21:13;45.49;40.62;54.51;;
38366;Laerm;943;51.568;6.998;2023-05-10T04:23:42;45.25;40.73;54.94;;
38366;Laerm;943;51.568;6.998;2023-05-10T04:26:10;45.44;40.56;54.73;;
38366;Laerm;943;51.568;6.998;2023-05-10T04:28:38;45.29;41.42;55.52;;
38366;Laerm;943;51.568;6.998;2023-05-10T04:31:09;44.57;41.04;53.68;;
38366;Laerm;943;51.568;6.998;2023-05-10T04:33:38;45.90;41.19;64.19;;
38366;Laerm;943;51.568;6.998;2023-05-10T04:36:06;51.12;41.98;69.20;;
38366;Laerm;943;51.568;6.998;2023-05-10T04:38:34;46.35;42.17;53.97;;
38366;Laerm;943;51.568;6.998;2023-05-10T04:41:10;49.66;41.47;76.86;;
38366;Laerm;943;51.568;6.998;2023-05-10T04:43:39;51.67;42.38;75.26;;
38366;Laerm;943;51.568;6.998;2023-05-10T04:46:07;47.35;41.23;67.23;;
38366;Laerm;943;51.568;6.998;2023-05-10T04:48:35;45.02;41.07;52.70;;
38366;Laerm;943;51.568;6.998;2023-05-10T04:51:03;46.48;41.21;64.47;;
38366;Laerm;943;51.568;6.998;2023-05-10T04:53:32;50.31;41.78;72.99;;
38366;Laerm;943;51.568;6.998;2023-05-10T04:56:00;47.33;42.38;66.70;;
38366;Laerm;943;51.568;6.998;2023-05-10T04:58:28;46.71;41.76;59.06;;
38366;Laerm;943;51.568;6.998;2023-05-10T05:00:56;48.14;41.82;65.42;;
38366;Laerm;943;51.568;6.998;2023-05-10T05:03:24;54.85;41.79;71.61;;
38366;Laerm;943;51.568;6.998;2023-05-10T05:05:52;48.21;41.12;60.79;;
38366;Laerm;943;51.568;6.998;2023-05-10T05:08:20;46.27;42.68;55.82;;
38366;Laerm;943;51.568;6.998;2023-05-10T05:10:48;46.08;42.66;58.57;;
38366;Laerm;943;51.568;6.998;2023-05-10T05:13:17;48.56;41.03;75.44;;
38366;Laerm;943;51.568;6.998;2023-05-10T05:15:46;45.59;41.69;54.05;;
38366;Laerm;943;51.568;6.998;2023-05-10T05:18:14;46.13;41.69;56.89;;
38366;Laerm;943;51.568;6.998;2023-05-10T05:20:42;46.75;42.69;61.71;;
38366;Laerm;943;51.568;6.998;2023-05-10T05:23:10;47.07;42.43;65.65;;
38366;Laerm;943;51.568;6.998;2023-05-10T05:25:38;55.12;42.52;71.47;;
38366;Laerm;943;51.568;6.998;2023-05-10T05:28:06;56.27;42.35;74.97;;
38366;Laerm;943;51.568;6.998;2023-05-10T05:30:34;47.18;42.82;57.58;;
38366;Laerm;943;51.568;6.998;2023-05-10T05:33:03;48.78;42.62;64.69;;
38366;Laerm;943;51.568;6.998;2023-05-10T05:35:31;45.65;42.05;63.80;;
38366;Laerm;943;51.568;6.998;2023-05-10T05:37:59;47.97;42.00;60.22;;
38366;Laerm;943;51.568;6.998;2023-05-10T05:40:27;49.07;43.37;72.00;;
38366;Laerm;943;51.568;6.998;2023-05-10T05:42:55;47.14;42.68;59.53;;
38366;Laerm;943;51.568;6.998;2023-05-10T05:45:22;58.89;42.90;78.88;;
38366;Laerm;943;51.568;6.998;2023-05-10T05:47:50;52.53;43.42;74.68;;
38366;Laerm;943;51.568;6.998;2023-05-10T05:50:18;47.45;42.79;57.67;;
38366;Laerm;943;51.568;6.998;2023-05-10T05:52:46;46.00;43.05;60.26;;
38366;Laerm;943;51.568;6.998;2023-05-10T05:55:14;47.76;41.95;72.34;;
38366;Laerm;943;51.568;6.998;2023-05-10T05:57:42;47.24;42.77;65.27;;
38366;Laerm;943;51.568;6.998;2023-05-10T06:00:11;46.13;42.83;58.29;;
38366;Laerm;943;51.568;6.998;2023-05-10T06:02:39;49.03;43.40;70.34;;
38366;Laerm;943;51.568;6.998;2023-05-10T06:05:08;59.07;42.12;83.08;;
38366;Laerm;943;51.568;6.998;2023-05-10T06:07:36;47.50;42.66;63.21;;
38366;Laerm;943;51.568;6.998;2023-05-10T06:10:06;49.63;42.33;69.52;;
38366;Laerm;943;51.568;6.998;2023-05-10T06:12:34;46.34;42.42;57.16;;
38366;Laerm;943;51.568;6.998;2023-05-10T06:15:04;47.63;42.48;65.23;;
38366;Laerm;943;51.568;6.998;2023-05-10T06:17:32;63.60;42.68;86.64;;
38366;Laerm;943;51.568;6.998;2023-05-10T06:20:00;47.53;42.09;72.32;;
38366;Laerm;943;51.568;6.998;2023-05-10T06:22:28;47.45;41.94;70.20;;
38366;Laerm;943;51.568;6.998;2023-05-10T06:24:57;48.62;42.76;66.27;;
38366;Laerm;943;51.568;6.998;2023-05-10T06:27:25;46.56;41.82;62.62;;
38366;Laerm;943;51.568;6.998;2023-05-10T06:29:53;48.37;41.84;66.16;;
38366;Laerm;943;51.568;6.998;2023-05-10T06:32:35;47.60;42.86;62.58;;
38366;Laerm;943;51.568;6.998;2023-05-10T06:35:04;51.88;42.90;69.27;;
38366;Laerm;943;51.568;6.998;2023-05-10T06:37:32;46.62;42.63;62.57;;
38366;Laerm;943;51.568;6.998;2023-05-10T06:40:01;50.34;41.70;63.74;;
38366;Laerm;943;51.568;6.998;2023-05-10T06:42:29;51.27;40.80;69.98;;
38366;Laerm;943;51.568;6.998;2023-05-10T06:44:57;53.61;43.23;76.13;;
38366;Laerm;943;51.568;6.998;2023-05-10T06:47:26;54.58;42.07;75.07;;
38366;Laerm;943;51.568;6.998;2023-05-10T06:49:54;46.47;40.11;59.43;;
38366;Laerm;943;51.568;6.998;2023-05-10T06:52:23;51.66;41.79;70.70;;
38366;Laerm;943;51.568;6.998;2023-05-10T06:54:51;51.12;41.39;73.10;;
38366;Laerm;943;51.568;6.998;2023-05-10T06:57:19;46.54;41.38;64.82;;
38366;Laerm;943;51.568;6.998;2023-05-10T07:00:01;52.58;41.73;75.99;;
38366;Laerm;943;51.568;6.998;2023-05-10T07:02:32;47.44;39.98;69.42;;
38366;Laerm;943;51.568;6.998;2023-05-10T07:05:00;46.42;40.85;62.70;;
38366;Laerm;943;51.568;6.998;2023-05-10T07:07:30;47.68;41.16;68.13;;
38366;Laerm;943;51.568;6.998;2023-05-10T07:09:58;47.20;41.14;62.05;;
38366;Laerm;943;51.568;6.998;2023-05-10T07:12:27;50.92;40.63;67.48;;
38366;Laerm;943;51.568;6.998;2023-05-10T07:14:55;57.77;40.78;80.03;;
38366;Laerm;943;51.568;6.998;2023-05-10T07:17:23;52.27;41.48;70.24;;
38366;Laerm;943;51.568;6.998;2023-05-10T07:19:51;49.97;41.10;70.64;;
38366;Laerm;943;51.568;6.998;2023-05-10T07:22:19;55.09;42.90;69.33;;
38366;Laerm;943;51.568;6.998;2023-05-10T07:24:47;54.48;42.36;77.81;;
38366;Laerm;943;51.568;6.998;2023-05-10T07:27:15;46.60;40.56;61.56;;
38366;Laerm;943;51.568;6.998;2023-05-10T07:29:43;49.06;41.36;67.83;;
38366;Laerm;943;51.568;6.998;2023-05-10T07:32:11;52.16;41.78;70.57;;
38366;Laerm;943;51.568;6.998;2023-05-10T07:34:38;51.60;42.16;68.71;;
38366;Laerm;943;51.568;6.998;2023-05-10T07:37:07;48.61;41.23;68.61;;
38366;Laerm;943;51.568;6.998;2023-05-10T07:39:35;50.85;40.25;67.64;;
38366;Laerm;943;51.568;6.998;2023-05-10T07:42:03;59.45;40.68;82.00;;
38366;Laerm;943;51.568;6.998;2023-05-10T07:44:31;52.54;41.99;75.24;;
38366;Laerm;943;51.568;6.998;2023-05-10T07:46:59;53.23;41.42;72.98;;
38366;Laerm;943;51.568;6.998;2023-05-10T07:49:27;50.31;39.44;70.25;;
38366;Laerm;943;51.568;6.998;2023-05-10T07:51:54;47.48;40.39;70.31;;
38366;Laerm;943;51.568;6.998;2023-05-10T07:54:23;47.29;40.19;65.24;;
38366;Laerm;943;51.568;6.998;2023-05-10T07:56:51;48.03;40.75;63.37;;
38366;Laerm;943;51.568;6.998;2023-05-10T07:59:19;47.47;40.43;67.13;;
38366;Laerm;943;51.568;6.998;2023-05-10T08:01:47;47.34;40.82;65.44;;
38366;Laerm;943;51.568;6.998;2023-05-10T08:04:15;48.54;40.70;62.00;;
38366;Laerm;943;51.568;6.998;2023-05-10T08:06:44;50.67;40.74;66.39;;
38366;Laerm;943;51.568;6.998;2023-05-10T08:09:12;49.16;39.99;69.48;;
38366;Laerm;943;51.568;6.998;2023-05-10T08:11:41;48.59;41.25;68.10;;
38366;Laerm;943;51.568;6.998;2023-05-10T08:14:11;51.35;40.90;69.73;;
38366;Laerm;943;51.568;6.998;2023-05-10T08:16:39;57.71;42.67;72.02;;
38366;Laerm;943;51.568;6.998;2023-05-10T08:19:07;64.26;45.61;72.27;;
38366;Laerm;943;51.568;6.998;2023-05-10T08:21:35;59.12;51.98;66.39;;
38366;Laerm;943;51.568;6.998;2023-05-10T08:24:04;64.69;53.18;75.74;;
38366;Laerm;943;51.568;6.998;2023-05-10T08:26:33;61.42;51.58;70.23;;
38366;Laerm;943;51.568;6.998;2023-05-10T08:29:01;59.69;51.89;71.33;;
38366;Laerm;943;51.568;6.998;2023-05-10T08:31:29;60.99;52.96;71.00;;
38366;Laerm;943;51.568;6.998;2023-05-10T08:33:58;60.83;51.58;72.39;;
38366;Laerm;943;51.568;6.998;2023-05-10T08:36:26;59.43;52.12;65.43;;
38366;Laerm;943;51.568;6.998;2023-05-10T08:38:55;64.50;53.23;74.59;;
38366;Laerm;943;51.568;6.998;2023-05-10T08:41:25;57.43;45.84;78.32;;
38366;Laerm;943;51.568;6.998;2023-05-10T08:43:56;64.16;46.82;73.06;;
38366;Laerm;943;51.568;6.998;2023-05-10T08:46:27;54.46;41.28;67.60;;
38366;Laerm;943;51.568;6.998;2023-05-10T08:48:58;51.39;39.34;72.22;;
38366;Laerm;943;51.568;6.998;2023-05-10T08:51:36;61.97;45.65;71.48;;
38366;Laerm;943;51.568;6.998;2023-05-10T08:54:10;60.76;53.31;69.81;;
38366;Laerm;943;51.568;6.998;2023-05-10T08:56:38;56.16;44.35;74.72;;
38366;Laerm;943;51.568;6.998;2023-05-10T08:59:07;59.89;46.53;75.45;;
38366;Laerm;943;51.568;6.998;2023-05-10T09:01:37;61.39;49.30;77.94;;
38366;Laerm;943;51.568;6.998;2023-05-10T09:04:06;59.64;44.30;77.16;;
38366;Laerm;943;51.568;6.998;2023-05-10T09:06:34;55.87;44.82;75.80;;
38366;Laerm;943;51.568;6.998;2023-05-10T09:09:03;57.80;44.02;76.68;;
38366;Laerm;943;51.568;6.998;2023-05-10T09:11:32;60.23;43.44;76.05;;
38366;Laerm;943;51.568;6.998;2023-05-10T09:14:01;62.13;43.23;78.86;;
38366;Laerm;943;51.568;6.998;2023-05-10T09:16:30;61.64;46.36;80.35;;
38366;Laerm;943;51.568;6.998;2023-05-10T09:18:58;59.68;43.79;82.62;;
38366;Laerm;943;51.568;6.998;2023-05-10T09:21:30;55.10;43.56;78.82;;
38366;Laerm;943;51.568;6.998;2023-05-10T09:24:08;55.07;42.00;77.37;;
38366;Laerm;943;51.568;6.998;2023-05-10T09:26:48;52.87;40.33;75.45;;
38366;Laerm;943;51.568;6.998;2023-05-10T09:29:17;54.12;41.26;76.33;;
38366;Laerm;943;51.568;6.998;2023-05-10T09:31:51;47.92;40.94;65.63;;
38366;Laerm;943;51.568;6.998;2023-05-10T09:34:32;58.61;42.36;82.20;;
38366;Laerm;943;51.568;6.998;2023-05-10T09:37:03;64.22;41.46;81.96;;
38366;Laerm;943;51.568;6.998;2023-05-10T09:39:36;58.24;41.62;79.55;;
38366;Laerm;943;51.568;6.998;2023-05-10T09:42:09;50.97;42.72;70.77;;
38366;Laerm;943;51.568;6.998;2023-05-10T09:44:37;51.58;41.61;71.86;;
38366;Laerm;943;51.568;6.998;2023-05-10T09:47:06;48.26;41.88;65.21;;
38366;Laerm;943;51.568;6.998;2023-05-10T09:49:34;64.06;42.22;88.61;;
38366;Laerm;943;51.568;6.998;2023-05-10T09:52:07;48.01;42.22;70.52;;
38366;Laerm;943;51.568;6.998;2023-05-10T09:54:36;47.81;42.41;63.38;;
38366;Laerm;943;51.568;6.998;2023-05-10T09:57:04;53.93;41.40;78.16;;
38366;Laerm;943;51.568;6.998;2023-05-10T09:59:33;59.76;42.26;85.27;;
38366;Laerm;943;51.568;6.998;2023-05-10T10:02:03;50.21;41.29;75.79;;
38366;Laerm;943;51.568;6.998;2023-05-10T10:04:31;47.82;43.68;65.05;;
38366;Laerm;943;51.568;6.998;2023-05-10T10:07:03;62.48;43.32;85.01;;
38366;Laerm;943;51.568;6.998;2023-05-10T10:09:34;57.56;42.60;81.25;;
38366;Laerm;943;51.568;6.998;2023-05-10T10:12:03;61.60;42.87;86.11;;
38366;Laerm;943;51.568;6.998;2023-05-10T10:14:33;46.94;42.09;63.02;;
38366;Laerm;943;51.568;6.998;2023-05-10T10:17:02;50.99;41.58;74.04;;
38366;Laerm;943;51.568;6.998;2023-05-10T10:19:36;59.45;41.31;82.18;;
38366;Laerm;943;51.568;6.998;2023-05-10T10:22:05;63.52;42.30;82.33;;
38366;Laerm;943;51.568;6.998;2023-05-10T10:24:36;56.36;42.19;79.30;;
38366;Laerm;943;51.568;6.998;2023-05-10T10:30:41;67.02;43.38;88.30;;
38366;Laerm;943;51.568;6.998;2023-05-10T10:36:23;64.97;43.01;87.95;;
38366;Laerm;943;51.568;6.998;2023-05-10T10:39:01;70.14;43.46;91.04;;
38366;Laerm;943;51.568;6.998;2023-05-10T10:41:55;64.48;41.72;80.67;;
38366;Laerm;943;51.568;6.998;2023-05-10T10:44:38;49.77;42.53;62.90;;
38366;Laerm;943;51.568;6.998;2023-05-10T10:50:05;49.73;44.30;69.27;;
38366;Laerm;943;51.568;6.998;2023-05-10T10:52:43;58.24;43.44;80.63;;
38366;Laerm;943;51.568;6.998;2023-05-10T10:55:20;67.51;43.97;86.91;;
38366;Laerm;943;51.568;6.998;2023-05-10T10:57:57;56.47;42.49;79.81;;
38366;Laerm;943;51.568;6.998;2023-05-10T11:00:38;50.97;42.88;69.99;;
38366;Laerm;943;51.568;6.998;2023-05-10T11:03:13;53.83;42.59;69.60;;
38366;Laerm;943;51.568;6.998;2023-05-10T11:05:57;60.70;41.79;83.27;;
38366;Laerm;943;51.568;6.998;2023-05-10T11:08:32;60.99;42.48;77.03;;
38366;Laerm;943;51.568;6.998;2023-05-10T11:11:07;64.65;43.11;86.13;;
38366;Laerm;943;51.568;6.998;2023-05-10T11:13:45;64.00;42.55;86.92;;
38366;Laerm;943;51.568;6.998;2023-05-10T11:16:25;56.44;41.55;79.57;;
38366;Laerm;943;51.568;6.998;2023-05-10T11:19:13;70.52;42.10;92.92;;
38366;Laerm;943;51.568;6.998;2023-05-10T11:22:12;62.63;42.45;83.35;;
38366;Laerm;943;51.568;6.998;2023-05-10T11:24:57;51.00;42.76;76.81;;
38366;Laerm;943;51.568;6.998;2023-05-10T11:27:28;57.36;42.22;78.70;;
38366;Laerm;943;51.568;6.998;2023-05-10T11:29:56;66.26;41.57;87.83;;
38366;Laerm;943;51.568;6.998;2023-05-10T11:32:24;56.26;41.94;74.00;;
38366;Laerm;943;51.568;6.998;2023-05-10T11:34:52;58.04;41.93;75.28;;
38366;Laerm;943;51.568;6.998;2023-05-10T11:37:20;56.75;41.84;80.12;;
38366;Laerm;943;51.568;6.998;2023-05-10T11:39:48;50.82;40.65;70.96;;
38366;Laerm;943;51.568;6.998;2023-05-10T11:42:16;49.19;41.08;68.72;;
38366;Laerm;943;51.568;6.998;2023-05-10T11:44:48;48.54;42.65;59.64;;
38366;Laerm;943;51.568;6.998;2023-05-10T11:47:16;49.87;40.85;63.80;;
38366;Laerm;943;51.568;6.998;2023-05-10T11:49:48;49.74;42.03;64.25;;
38366;Laerm;943;51.568;6.998;2023-05-10T11:52:19;67.12;44.59;88.12;;
38366;Laerm;943;51.568;6.998;2023-05-10T11:54:55;62.60;44.86;86.92;;
38366;Laerm;943;51.568;6.998;2023-05-10T11:57:27;61.52;42.98;87.89;;
38366;Laerm;943;51.568;6.998;2023-05-10T11:59:59;54.02;42.46;78.82;;
38366;Laerm;943;51.568;6.998;2023-05-10T12:02:29;47.13;41.72;66.10;;
38366;Laerm;943;51.568;6.998;2023-05-10T12:04:58;47.28;41.96;62.73;;
38366;Laerm;943;51.568;6.998;2023-05-10T12:07:26;50.68;41.75;67.70;;
38366;Laerm;943;51.568;6.998;2023-05-10T12:10:13;48.03;42.00;62.51;;
38366;Laerm;943;51.568;6.998;2023-05-10T12:12:46;55.44;42.28;78.02;;
38366;Laerm;943;51.568;6.998;2023-05-10T12:15:25;50.69;40.26;72.61;;
38366;Laerm;943;51.568;6.998;2023-05-10T12:18:01;49.10;40.47;62.39;;
38366;Laerm;943;51.568;6.998;2023-05-10T12:20:31;48.19;40.06;64.53;;
38366;Laerm;943;51.568;6.998;2023-05-10T12:22:59;47.11;39.99;60.91;;
38366;Laerm;943;51.568;6.998;2023-05-10T12:25:37;54.31;42.24;84.01;;
38366;Laerm;943;51.568;6.998;2023-05-10T12:28:09;52.46;42.24;75.04;;
38366;Laerm;943;51.568;6.998;2023-05-10T12:30:40;59.83;41.72;80.77;;
38366;Laerm;943;51.568;6.998;2023-05-10T12:33:14;47.60;41.10;64.40;;
38366;Laerm;943;51.568;6.998;2023-05-10T12:35:54;61.26;40.94;78.13;;
38366;Laerm;943;51.568;6.998;2023-05-10T12:38:39;54.97;42.26;77.14;;
38366;Laerm;943;51.568;6.998;2023-05-10T12:41:17;51.40;42.27;70.96;;
38366;Laerm;943;51.568;6.998;2023-05-10T12:43:45;51.85;41.38;70.82;;
38366;Laerm;943;51.568;6.998;2023-05-10T12:46:17;50.25;41.13;62.89;;
38366;Laerm;943;51.568;6.998;2023-05-10T12:48:46;52.78;42.14;76.43;;
38366;Laerm;943;51.568;6.998;2023-05-10T12:51:29;53.72;41.30;75.39;;
38366;Laerm;943;51.568;6.998;2023-05-10T12:53:58;63.84;41.29;83.01;;
38366;Laerm;943;51.568;6.998;2023-05-10T12:56:26;55.95;40.98;76.55;;
38366;Laerm;943;51.568;6.998;2023-05-10T12:58:54;58.83;42.66;81.36;;
38366;Laerm;943;51.568;6.998;2023-05-10T13:01:22;55.30;41.68;79.15;;
38366;Laerm;943;51.568;6.998;2023-05-10T13:03:50;50.32;41.12;73.36;;
38366;Laerm;943;51.568;6.998;2023-05-10T13:06:18;48.24;41.82;71.86;;
38366;Laerm;943;51.568;6.998;2023-05-10T13:08:45;55.57;41.34;80.28;;
38366;Laerm;943;51.568;6.998;2023-05-10T13:11:14;47.83;41.06;63.02;;
38366;Laerm;943;51.568;6.998;2023-05-10T13:13:47;52.94;42.27;75.66;;
38366;Laerm;943;51.568;6.998;2023-05-10T13:16:15;49.65;41.10;65.27;;
38366;Laerm;943;51.568;6.998;2023-05-10T13:18:44;52.06;41.32;72.82;;
38366;Laerm;943;51.568;6.998;2023-05-10T13:21:15;47.99;40.87;59.49;;
38366;Laerm;943;51.568;6.998;2023-05-10T13:23:44;48.85;39.41;71.04;;
38366;Laerm;943;51.568;6.998;2023-05-10T13:26:12;60.26;40.13;78.13;;
38366;Laerm;943;51.568;6.998;2023-05-10T13:28:39;68.22;43.13;85.27;;
38366;Laerm;943;51.568;6.998;2023-05-10T13:31:08;55.65;40.89;76.43;;
38366;Laerm;943;51.568;6.998;2023-05-10T13:33:36;53.86;41.86;81.45;;
38366;Laerm;943;51.568;6.998;2023-05-10T13:36:04;49.45;41.38;63.79;;
38366;Laerm;943;51.568;6.998;2023-05-10T13:38:32;48.85;42.12;64.51;;
38366;Laerm;943;51.568;6.998;2023-05-10T13:41:00;60.00;42.81;83.30;;
38366;Laerm;943;51.568;6.998;2023-05-10T13:43:29;56.38;41.95;76.26;;
38366;Laerm;943;51.568;6.998;2023-05-10T13:45:57;51.44;40.13;74.46;;
38366;Laerm;943;51.568;6.998;2023-05-10T13:48:26;48.14;40.69;65.27;;
38366;Laerm;943;51.568;6.998;2023-05-10T13:50:54;48.09;40.08;63.55;;
38366;Laerm;943;51.568;6.998;2023-05-10T13:53:23;53.97;40.54;79.10;;
38366;Laerm;943;51.568;6.998;2023-05-10T13:55:51;52.02;40.82;78.44;;
38366;Laerm;943;51.568;6.998;2023-05-10T13:58:19;53.96;42.36;82.76;;
38366;Laerm;943;51.568;6.998;2023-05-10T14:00:47;49.17;41.71;66.08;;
38366;Laerm;943;51.568;6.998;2023-05-10T14:03:15;56.16;41.77;74.91;;
38366;Laerm;943;51.568;6.998;2023-05-10T14:05:45;55.05;42.67;75.68;;
38366;Laerm;943;51.568;6.998;2023-05-10T14:08:13;52.90;43.29;66.47;;
38366;Laerm;943;51.568;6.998;2023-05-10T14:10:42;55.34;43.74;76.22;;
38366;Laerm;943;51.568;6.998;2023-05-10T14:13:09;50.70;42.02;65.80;;
38366;Laerm;943;51.568;6.998;2023-05-10T14:15:37;49.94;41.43;67.64;;
38366;Laerm;943;51.568;6.998;2023-05-10T14:18:05;58.54;42.28;79.21;;
38366;Laerm;943;51.568;6.998;2023-05-10T14:20:33;62.84;43.67;79.32;;
38366;Laerm;943;51.568;6.998;2023-05-10T14:23:01;63.35;42.98;81.26;;
38366;Laerm;943;51.568;6.998;2023-05-10T14:25:29;63.00;42.36;81.03;;
38366;Laerm;943;51.568;6.998;2023-05-10T14:27:57;64.16;42.89;84.46;;
38366;Laerm;943;51.568;6.998;2023-05-10T14:30:25;61.69;41.81;81.29;;
38366;Laerm;943;51.568;6.998;2023-05-10T14:32:53;54.80;42.31;72.31;;
38366;Laerm;943;51.568;6.998;2023-05-10T14:35:22;50.64;40.86;70.58;;
38366;Laerm;943;51.568;6.998;2023-05-10T14:37:50;51.75;42.08;69.78;;
38366;Laerm;943;51.568;6.998;2023-05-10T14:40:18;52.86;42.86;65.73;;
38366;Laerm;943;51.568;6.998;2023-05-10T14:42:46;49.45;41.80;65.10;;
38366;Laerm;943;51.568;6.998;2023-05-10T14:45:14;46.71;41.83;61.82;;
38366;Laerm;943;51.568;6.998;2023-05-10T14:47:45;48.19;41.87;62.60;;
38366;Laerm;943;51.568;6.998;2023-05-10T14:50:13;59.14;41.70;78.68;;
38366;Laerm;943;51.568;6.998;2023-05-10T14:53:01;51.12;42.34;68.15;;
38366;Laerm;943;51.568;6.998;2023-05-10T14:55:29;52.57;40.58;73.63;;
38366;Laerm;943;51.568;6.998;2023-05-10T14:57:57;63.08;42.61;84.57;;
38366;Laerm;943;51.568;6.998;2023-05-10T15:00:28;48.61;40.85;60.53;;
38366;Laerm;943;51.568;6.998;2023-05-10T15:02:57;54.14;41.29;75.08;;